createdAt,value
2019-03-26T00:02:20.537Z,76.20
2019-03-26T00:04:52.914Z,76.17
2019-03-26T00:07:25.287Z,76.09
2019-03-26T00:09:57.659Z,76.06
2019-03-26T00:12:30.049Z,76.12
2019-03-26T00:15:02.436Z,75.90
2019-03-26T00:17:36.087Z,75.81
2019-03-26T00:20:08.885Z,76.00
2019-03-26T00:22:41.271Z,75.84
2019-03-26T00:25:13.649Z,75.89
2019-03-26T00:27:46.044Z,75.81
2019-03-26T00:30:18.421Z,76.04
2019-03-26T00:32:50.794Z,76.04
2019-03-26T00:35:23.171Z,76.05
2019-03-26T00:37:55.536Z,75.83
2019-03-26T00:40:27.895Z,75.41
2019-03-26T00:43:00.330Z,75.81
2019-03-26T00:45:32.701Z,75.87
2019-03-26T00:48:05.113Z,76.10
2019-03-26T00:50:37.495Z,76.12
2019-03-26T00:53:09.879Z,75.70
2019-03-26T00:55:44.275Z,75.60
2019-03-26T00:58:16.336Z,75.63
2019-03-26T01:00:48.699Z,75.27
2019-03-26T01:03:21.090Z,75.11
2019-03-26T01:05:53.444Z,75.34
2019-03-26T01:08:25.895Z,75.33
2019-03-26T01:10:58.211Z,75.35
2019-03-26T01:13:32.905Z,75.26
2019-03-26T01:16:05.289Z,75.39
2019-03-26T01:18:37.721Z,74.42
2019-03-26T01:21:10.126Z,74.60
2019-03-26T01:23:42.505Z,73.91
2019-03-26T01:26:14.928Z,74.33
2019-03-26T01:28:47.319Z,74.48
2019-03-26T01:31:19.724Z,74.69
2019-03-26T01:33:52.181Z,74.78
2019-03-26T01:36:24.528Z,74.82
2019-03-26T01:38:56.917Z,74.91
2019-03-26T01:41:29.327Z,75.08
2019-03-26T01:44:01.690Z,75.04
2019-03-26T01:46:34.085Z,74.85
2019-03-26T01:49:06.459Z,74.95
2019-03-26T01:51:38.833Z,75.54
2019-03-26T01:54:11.203Z,75.86
2019-03-26T01:56:43.586Z,75.68
2019-03-26T01:59:15.958Z,75.74
2019-03-26T02:01:48.357Z,75.40
2019-03-26T02:04:20.708Z,75.40
2019-03-26T02:06:53.076Z,74.99
2019-03-26T02:09:25.429Z,75.42
2019-03-26T02:11:57.816Z,75.39
2019-03-26T02:14:30.174Z,75.44
2019-03-26T02:17:02.582Z,75.70
2019-03-26T02:19:35.918Z,75.84
2019-03-26T02:22:08.312Z,75.75
2019-03-26T02:24:40.681Z,75.71
2019-03-26T02:27:13.165Z,75.89
2019-03-26T02:29:45.642Z,75.83
2019-03-26T02:32:18.101Z,75.87
2019-03-26T02:34:50.460Z,75.66
2019-03-26T02:37:22.837Z,75.63
2019-03-26T02:39:55.197Z,75.52
2019-03-26T02:42:27.584Z,75.54
2019-03-26T02:44:59.929Z,75.84
2019-03-26T02:47:32.334Z,76.08
2019-03-26T02:50:05.952Z,76.59
2019-03-26T02:52:38.327Z,76.74
2019-03-26T02:55:10.887Z,76.68
2019-03-26T02:57:43.282Z,76.70
2019-03-26T03:00:15.815Z,76.69
2019-03-26T03:02:48.410Z,76.48
2019-03-26T03:05:34.230Z,76.53
2019-03-26T03:07:54.931Z,76.37
2019-03-26T03:10:27.327Z,76.49
2019-03-26T03:12:59.706Z,76.41
2019-03-26T03:15:32.358Z,76.45
2019-03-26T03:18:04.757Z,76.33
2019-03-26T03:20:37.096Z,76.89
2019-03-26T03:23:10.912Z,76.97
2019-03-26T03:25:43.598Z,77.29
2019-03-26T03:28:16.242Z,77.24
2019-03-26T03:30:48.885Z,76.86
2019-03-26T03:33:21.263Z,76.85
2019-03-26T03:35:53.914Z,76.83
2019-03-26T03:38:26.577Z,76.37
2019-03-26T03:40:58.923Z,75.55
2019-03-26T03:43:31.608Z,75.96
2019-03-26T03:46:05.409Z,76.07
2019-03-26T03:48:38.469Z,76.16
2019-03-26T03:51:12.768Z,76.89
2019-03-26T03:53:45.639Z,76.92
2019-03-26T03:56:21.158Z,77.30
2019-03-26T03:58:54.107Z,77.70
2019-03-26T04:01:26.749Z,77.27
2019-03-26T04:03:59.416Z,77.41
2019-03-26T04:06:32.061Z,77.01
2019-03-26T04:09:05.570Z,76.78
2019-03-26T04:11:38.383Z,77.03
2019-03-26T04:14:11.196Z,77.17
2019-03-26T04:16:43.868Z,76.80
2019-03-26T04:19:16.529Z,76.59
2019-03-26T04:21:49.187Z,76.39
2019-03-26T04:24:21.915Z,76.99
2019-03-26T04:26:54.591Z,76.97
2019-03-26T04:29:27.240Z,76.94
2019-03-26T04:31:59.897Z,77.10
2019-03-26T04:34:32.542Z,76.94
2019-03-26T04:37:05.199Z,76.90
2019-03-26T04:39:37.871Z,77.18
2019-03-26T04:42:10.551Z,77.37
2019-03-26T04:44:43.217Z,77.61
2019-03-26T04:47:15.966Z,77.46
2019-03-26T04:49:48.603Z,77.55
2019-03-26T04:52:21.291Z,77.05
2019-03-26T04:54:53.933Z,77.14
2019-03-26T04:57:26.686Z,76.96
2019-03-26T04:59:59.328Z,76.08
2019-03-26T05:02:31.705Z,75.66
2019-03-26T05:05:04.072Z,76.05
2019-03-26T05:07:36.743Z,76.97
2019-03-26T05:10:09.501Z,77.87
2019-03-26T05:12:42.163Z,77.56
2019-03-26T05:15:15.111Z,77.65
2019-03-26T05:17:47.809Z,76.16
2019-03-26T05:20:20.180Z,76.81
2019-03-26T05:22:52.859Z,76.43
2019-03-26T05:25:25.236Z,76.60
2019-03-26T05:27:58.209Z,77.12
2019-03-26T05:30:33.152Z,77.76
2019-03-26T05:33:05.216Z,77.68
2019-03-26T05:35:37.583Z,77.32
2019-03-26T05:38:10.397Z,76.75
2019-03-26T05:40:43.028Z,75.47
2019-03-26T05:43:15.708Z,75.43
2019-03-26T05:45:48.061Z,75.43
2019-03-26T05:48:20.752Z,75.86
2019-03-26T05:50:54.101Z,76.95
2019-03-26T05:53:26.494Z,77.93
2019-03-26T05:55:58.880Z,78.17
2019-03-26T05:58:31.539Z,78.00
2019-03-26T06:01:04.207Z,77.81
2019-03-26T06:03:36.865Z,77.49
2019-03-26T06:06:09.622Z,77.19
2019-03-26T06:08:43.755Z,77.25
2019-03-26T06:11:16.158Z,77.20
2019-03-26T06:13:48.823Z,76.96
2019-03-26T06:16:21.469Z,76.79
2019-03-26T06:18:54.125Z,76.65
2019-03-26T06:21:26.483Z,76.72
2019-03-26T06:23:58.844Z,76.65
2019-03-26T06:26:31.506Z,76.46
2019-03-26T06:29:03.881Z,76.53
2019-03-26T06:31:36.293Z,76.62
2019-03-26T06:34:10.478Z,76.54
2019-03-26T06:36:43.204Z,76.65
2019-03-26T06:39:15.856Z,77.02
2019-03-26T06:41:48.242Z,77.36
2019-03-26T06:44:20.638Z,77.53
2019-03-26T06:46:53.049Z,77.44
2019-03-26T06:49:25.717Z,77.10
2019-03-26T06:51:58.105Z,77.51
2019-03-26T06:54:51.679Z,77.36
2019-03-26T06:57:35.033Z,77.22
2019-03-26T06:59:57.608Z,77.36
2019-03-26T07:02:31.062Z,76.93
2019-03-26T07:05:03.439Z,76.78
2019-03-26T07:07:35.824Z,76.44
2019-03-26T07:10:10.597Z,76.21
2019-03-26T07:12:43.026Z,75.89
2019-03-26T07:15:15.530Z,75.97
2019-03-26T07:17:48.024Z,76.26
2019-03-26T07:20:20.476Z,76.42
2019-03-26T07:22:52.899Z,76.68
2019-03-26T07:25:25.268Z,76.53
2019-03-26T07:27:57.659Z,76.45
2019-03-26T07:30:54.749Z,75.66
2019-03-26T07:33:27.120Z,75.60
2019-03-26T07:35:59.487Z,75.58
2019-03-26T07:38:31.877Z,76.12
2019-03-26T07:41:04.278Z,75.60
2019-03-26T07:43:36.671Z,75.38
2019-03-26T07:46:09.053Z,75.22
2019-03-26T07:48:42.428Z,74.95
2019-03-26T07:51:15.854Z,74.65
2019-03-26T07:53:48.251Z,74.00
2019-03-26T07:56:20.644Z,74.58
2019-03-26T07:58:53.019Z,74.29
2019-03-26T08:01:25.419Z,74.08
2019-03-26T08:03:58.857Z,73.86
2019-03-26T08:06:31.293Z,72.70
2019-03-26T08:09:04.562Z,72.21
2019-03-26T08:11:36.944Z,72.28
2019-03-26T08:14:09.297Z,72.56
2019-03-26T08:16:41.736Z,72.53
2019-03-26T08:19:14.244Z,72.93
2019-03-26T08:21:46.617Z,71.70
2019-03-26T08:24:19.078Z,72.00
2019-03-26T08:26:52.168Z,72.03
2019-03-26T08:29:24.594Z,71.96
2019-03-26T08:31:56.997Z,72.17
2019-03-26T08:34:29.355Z,70.60
2019-03-26T08:37:01.775Z,68.65
2019-03-26T08:39:35.120Z,70.15
2019-03-26T08:42:07.515Z,68.99
2019-03-26T08:44:41.551Z,68.06
2019-03-26T08:47:14.062Z,66.64
2019-03-26T08:49:46.466Z,68.17
2019-03-26T08:52:18.933Z,65.55
2019-03-26T08:54:51.315Z,64.84
2019-03-26T08:57:23.741Z,65.14
2019-03-26T08:59:56.110Z,63.87
2019-03-26T09:02:28.526Z,64.14
2019-03-26T09:05:02.001Z,62.63
2019-03-26T09:07:34.392Z,61.06
2019-03-26T09:10:08.948Z,60.75
2019-03-26T09:12:41.349Z,57.97
2019-03-26T09:15:15.763Z,60.07
2019-03-26T09:17:48.193Z,59.31
2019-03-26T09:20:20.755Z,59.84
2019-03-26T09:22:53.182Z,59.28
2019-03-26T09:25:26.543Z,57.13
2019-03-26T09:27:58.956Z,57.46
2019-03-26T09:30:31.315Z,57.68
2019-03-26T09:33:03.733Z,57.56
2019-03-26T09:35:37.209Z,58.50
2019-03-26T09:38:09.620Z,57.74
2019-03-26T09:40:42.027Z,58.57
2019-03-26T09:43:14.512Z,59.55
2019-03-26T09:45:46.891Z,59.57
2019-03-26T09:48:19.476Z,60.40
2019-03-26T09:50:51.879Z,60.68
2019-03-26T09:53:24.246Z,61.70
2019-03-26T09:55:56.642Z,61.35
2019-03-26T09:58:29.012Z,61.60
2019-03-26T10:01:01.440Z,63.02
2019-03-26T10:03:33.821Z,62.51
2019-03-26T10:06:06.215Z,63.54
2019-03-26T10:08:51.416Z,62.35
2019-03-26T10:11:12.729Z,62.78
2019-03-26T10:13:45.110Z,62.56
2019-03-26T10:16:17.950Z,63.61
2019-03-26T10:18:50.335Z,62.13
2019-03-26T10:21:22.748Z,62.47
2019-03-26T10:23:55.174Z,62.67
2019-03-26T10:26:27.594Z,62.37
2019-03-26T10:28:59.994Z,62.38
2019-03-26T10:31:32.453Z,63.55
2019-03-26T10:34:04.970Z,63.10
2019-03-26T10:36:37.456Z,63.75
2019-03-26T10:39:10.547Z,63.34
2019-03-26T10:41:42.956Z,63.47
2019-03-26T10:44:15.336Z,63.39
2019-03-26T10:46:47.783Z,62.46
2019-03-26T10:49:20.163Z,61.71
2019-03-26T10:51:52.560Z,60.71
2019-03-26T10:54:24.966Z,61.99
2019-03-26T10:56:57.357Z,61.43
2019-03-26T10:59:29.815Z,60.23
2019-03-26T11:02:02.241Z,60.78
2019-03-26T11:04:34.685Z,59.53
2019-03-26T11:07:07.164Z,57.67
2019-03-26T11:09:40.641Z,57.58
2019-03-26T11:12:13.035Z,57.24
2019-03-26T11:14:45.456Z,57.95
2019-03-26T11:17:17.829Z,57.97
2019-03-26T11:19:50.223Z,56.47
2019-03-26T11:22:23.779Z,58.27
2019-03-26T11:24:56.186Z,58.18
2019-03-26T11:27:28.585Z,55.45
2019-03-26T11:30:00.997Z,55.48
2019-03-26T11:35:05.397Z,54.47
2019-03-26T11:37:37.811Z,55.48
2019-03-26T11:40:10.739Z,55.25
2019-03-26T11:42:43.195Z,55.45
2019-03-26T11:45:15.901Z,55.50
2019-03-26T11:47:48.276Z,54.95
2019-03-26T11:50:21.128Z,52.96
2019-03-26T11:52:53.509Z,52.84
2019-03-26T11:55:25.935Z,53.51
2019-03-26T11:57:58.419Z,51.88
2019-03-26T12:00:36.639Z,53.55
2019-03-26T12:03:09.289Z,51.19
2019-03-26T12:05:41.719Z,50.79
2019-03-26T12:08:14.123Z,49.51
2019-03-26T12:10:46.602Z,50.10
2019-03-26T12:13:19.001Z,50.78
2019-03-26T12:15:51.449Z,50.54
2019-03-26T12:18:23.851Z,50.88
2019-03-26T12:20:56.289Z,49.61
2019-03-26T12:23:28.686Z,50.07
2019-03-26T12:26:01.105Z,51.36
2019-03-26T12:28:33.496Z,53.03
2019-03-26T12:31:05.910Z,52.65
2019-03-26T12:33:38.278Z,52.36
2019-03-26T12:36:10.672Z,52.79
2019-03-26T12:38:43.071Z,53.32
2019-03-26T12:41:15.528Z,53.50
2019-03-26T12:43:47.922Z,53.73
2019-03-26T12:46:20.306Z,53.42
2019-03-26T12:48:52.705Z,52.70
2019-03-26T12:51:25.098Z,52.07
2019-03-26T12:53:57.534Z,51.15
2019-03-26T12:56:29.952Z,52.33
2019-03-26T12:59:02.371Z,52.17
2019-03-26T13:01:34.763Z,52.05
2019-03-26T13:04:12.777Z,52.86
2019-03-26T13:06:41.274Z,52.07
2019-03-26T13:09:13.969Z,51.68
2019-03-26T13:11:46.473Z,51.12
2019-03-26T13:14:18.873Z,49.98
2019-03-26T13:16:51.260Z,48.70
2019-03-26T13:19:23.694Z,50.31
2019-03-26T13:21:56.094Z,49.87
2019-03-26T13:24:28.539Z,48.19
2019-03-26T13:27:01.037Z,48.56
2019-03-26T13:29:33.460Z,49.31
2019-03-26T13:32:05.880Z,49.01
2019-03-26T13:34:38.284Z,49.61
2019-03-26T13:37:10.711Z,48.58
2019-03-26T13:39:43.153Z,48.52
2019-03-26T13:42:15.559Z,48.27
2019-03-26T13:44:47.938Z,48.74
2019-03-26T13:47:20.361Z,48.06
2019-03-26T13:49:52.742Z,48.50
2019-03-26T13:52:25.176Z,48.37
2019-03-26T13:54:57.580Z,48.08
2019-03-26T13:57:29.966Z,48.82
2019-03-26T14:00:02.395Z,49.64
2019-03-26T14:02:36.362Z,49.86
2019-03-26T14:05:23.826Z,48.98
2019-03-26T14:07:56.284Z,49.62
2019-03-26T14:10:40.124Z,49.42
2019-03-26T14:13:02.924Z,48.73
2019-03-26T14:15:35.411Z,48.07
2019-03-26T14:18:07.832Z,48.20
2019-03-26T14:20:40.229Z,48.49
2019-03-26T14:23:12.664Z,49.06
2019-03-26T14:25:45.086Z,49.70
2019-03-26T14:28:17.467Z,49.48
2019-03-26T14:30:49.878Z,49.77
2019-03-26T14:33:22.315Z,49.35
2019-03-26T14:35:55.131Z,49.48
2019-03-26T14:38:27.555Z,49.45
2019-03-26T14:40:59.975Z,50.40
2019-03-26T14:43:32.397Z,51.04
2019-03-26T14:46:05.960Z,51.50
2019-03-26T14:48:38.399Z,51.70
2019-03-26T14:51:10.808Z,50.90
2019-03-26T14:53:43.222Z,51.39
2019-03-26T14:56:15.658Z,50.98
2019-03-26T14:58:48.086Z,51.13
2019-03-26T15:01:20.486Z,51.10
2019-03-26T15:03:53.191Z,51.04
2019-03-26T15:06:25.600Z,50.30
2019-03-26T15:08:58.046Z,50.68
2019-03-26T15:11:30.450Z,51.17
2019-03-26T15:14:02.970Z,50.12
2019-03-26T15:16:35.358Z,48.84
2019-03-26T15:19:07.873Z,48.67
2019-03-26T15:21:40.295Z,48.50
2019-03-26T15:24:13.321Z,48.27
2019-03-26T15:26:45.723Z,49.29
2019-03-26T15:29:18.180Z,49.17
2019-03-26T15:31:50.539Z,48.06
2019-03-26T15:34:35.354Z,47.04
2019-03-26T15:36:57.321Z,47.47
2019-03-26T15:39:29.741Z,47.96
2019-03-26T15:42:02.131Z,48.11
2019-03-26T15:44:34.551Z,48.51
2019-03-26T15:47:06.985Z,49.65
2019-03-26T15:49:39.514Z,49.19
2019-03-26T15:52:11.933Z,49.94
2019-03-26T15:54:44.343Z,49.59
2019-03-26T15:57:16.729Z,49.70
2019-03-26T15:59:49.131Z,50.47
2019-03-26T16:02:21.817Z,49.85
2019-03-26T16:04:54.227Z,50.80
2019-03-26T16:07:26.643Z,50.95
2019-03-26T16:09:59.069Z,50.15
2019-03-26T16:12:40.963Z,51.26
2019-03-26T16:15:06.439Z,51.17
2019-03-26T16:17:38.851Z,50.62
2019-03-26T16:20:11.308Z,50.60
2019-03-26T16:22:43.755Z,50.53
2019-03-26T16:25:16.155Z,50.21
2019-03-26T16:27:48.578Z,50.52
2019-03-26T16:30:21.287Z,50.82
2019-03-26T16:32:53.693Z,50.64
2019-03-26T16:35:26.109Z,50.30
2019-03-26T16:37:58.506Z,50.55
2019-03-26T16:40:30.922Z,51.03
2019-03-26T16:43:03.334Z,51.34
2019-03-26T16:45:35.768Z,51.24
2019-03-26T16:48:08.173Z,50.64
2019-03-26T16:50:40.577Z,50.44
2019-03-26T16:53:13.014Z,50.70
2019-03-26T16:55:45.477Z,50.31
2019-03-26T16:58:17.883Z,50.44
2019-03-26T17:00:50.334Z,50.70
2019-03-26T17:03:31.236Z,50.16
2019-03-26T17:05:56.817Z,50.92
2019-03-26T17:08:29.266Z,50.77
2019-03-26T17:11:01.793Z,50.61
2019-03-26T17:13:34.275Z,50.80
2019-03-26T17:16:06.749Z,51.29
2019-03-26T17:18:39.156Z,51.74
2019-03-26T17:21:11.679Z,51.47
2019-03-26T17:23:44.119Z,51.00
2019-03-26T17:26:16.549Z,50.55
2019-03-26T17:28:49.093Z,51.03
2019-03-26T17:31:21.508Z,50.65
2019-03-26T17:33:54.998Z,50.53
2019-03-26T17:36:27.460Z,50.37
2019-03-26T17:38:59.864Z,50.31
2019-03-26T17:41:32.291Z,49.59
2019-03-26T17:44:05.798Z,49.68
2019-03-26T17:46:38.239Z,49.34
2019-03-26T17:49:10.638Z,49.75
2019-03-26T17:51:43.204Z,49.73
2019-03-26T17:54:15.768Z,49.65
2019-03-26T17:56:48.187Z,50.05
2019-03-26T17:59:20.591Z,50.16
2019-03-26T18:01:54.361Z,50.98
2019-03-26T18:04:27.091Z,50.80
2019-03-26T18:06:59.488Z,51.01
2019-03-26T18:09:31.952Z,50.93
2019-03-26T18:12:04.352Z,50.68
2019-03-26T18:14:36.955Z,50.79
2019-03-26T18:17:09.367Z,51.32
2019-03-26T18:19:41.814Z,51.24
2019-03-26T18:22:14.313Z,51.89
2019-03-26T18:24:46.710Z,51.51
2019-03-26T18:27:19.264Z,51.30
2019-03-26T18:29:51.776Z,51.70
2019-03-26T18:32:24.174Z,52.24
2019-03-26T18:34:56.608Z,52.28
2019-03-26T18:37:30.152Z,52.19
2019-03-26T18:40:02.683Z,52.44
2019-03-26T18:42:43.915Z,52.40
2019-03-26T18:45:09.581Z,52.75
2019-03-26T18:47:42.000Z,52.31
2019-03-26T18:50:14.728Z,52.29
2019-03-26T18:52:47.163Z,52.41
2019-03-26T18:55:19.657Z,52.26
2019-03-26T18:57:52.107Z,52.67
2019-03-26T19:00:36.310Z,53.35
2019-03-26T19:03:09.375Z,53.04
2019-03-26T19:05:41.807Z,52.52
2019-03-26T19:08:14.219Z,52.69
2019-03-26T19:10:46.615Z,52.93
2019-03-26T19:13:20.195Z,53.17
2019-03-26T19:15:52.713Z,52.71
2019-03-26T19:18:25.168Z,53.47
2019-03-26T19:21:02.311Z,53.41
2019-03-26T19:23:32.869Z,53.90
2019-03-26T19:26:05.302Z,55.16
2019-03-26T19:28:37.681Z,55.19
2019-03-26T19:31:10.172Z,54.29
2019-03-26T19:33:42.589Z,54.98
2019-03-26T19:36:14.998Z,55.19
2019-03-26T19:38:47.426Z,54.86
2019-03-26T19:41:19.838Z,53.26
2019-03-26T19:43:52.316Z,53.24
2019-03-26T19:46:24.742Z,53.17
2019-03-26T19:48:57.147Z,53.57
2019-03-26T19:51:29.571Z,54.96
2019-03-26T19:54:03.052Z,55.08
2019-03-26T19:56:35.483Z,55.81
2019-03-26T19:59:08.108Z,56.22
2019-03-26T20:01:40.582Z,56.40
2019-03-26T20:04:13.006Z,56.20
2019-03-26T20:06:45.478Z,56.29
2019-03-26T20:09:17.888Z,55.58
2019-03-26T20:11:50.331Z,55.74
2019-03-26T20:14:22.715Z,55.44
2019-03-26T20:16:55.183Z,55.83
2019-03-26T20:19:27.709Z,56.74
2019-03-26T20:22:00.168Z,55.39
2019-03-26T20:24:32.600Z,55.71
2019-03-26T20:27:05.140Z,56.52
2019-03-26T20:29:37.531Z,57.20
2019-03-26T20:32:09.963Z,57.19
2019-03-26T20:34:42.362Z,56.07
2019-03-26T20:37:14.835Z,55.93
2019-03-26T20:39:47.255Z,56.73
2019-03-26T20:42:19.813Z,56.98
2019-03-26T20:44:52.343Z,57.27
2019-03-26T20:47:24.776Z,56.49
2019-03-26T20:49:57.301Z,56.86
2019-03-26T20:52:29.727Z,57.09
2019-03-26T20:55:02.381Z,57.78
2019-03-26T20:57:34.923Z,57.93
2019-03-26T21:00:09.732Z,58.25
2019-03-26T21:02:42.922Z,58.52
2019-03-26T21:05:15.459Z,58.71
2019-03-26T21:07:48.027Z,59.39
2019-03-26T21:10:20.426Z,59.52
2019-03-26T21:12:53.025Z,58.66
2019-03-26T21:15:25.427Z,58.95
2019-03-26T21:17:57.835Z,59.74
2019-03-26T21:20:30.231Z,59.61
2019-03-26T21:23:02.684Z,58.76
2019-03-26T21:25:35.285Z,58.51
2019-03-26T21:28:08.036Z,58.03
2019-03-26T21:30:40.471Z,58.81
2019-03-26T21:33:12.970Z,59.88
2019-03-26T21:35:46.500Z,59.77
2019-03-26T21:38:19.817Z,59.43
2019-03-26T21:40:52.217Z,59.61
2019-03-26T21:43:24.603Z,59.70
2019-03-26T21:45:57.045Z,59.43
2019-03-26T21:48:29.475Z,59.22
2019-03-26T21:51:01.881Z,59.30
2019-03-26T21:53:34.294Z,59.10
2019-03-26T21:56:07.224Z,58.98
2019-03-26T21:58:39.706Z,59.17
2019-03-26T22:01:12.082Z,59.69
2019-03-26T22:03:45.563Z,59.89
2019-03-26T22:06:17.973Z,60.37
2019-03-26T22:08:51.846Z,60.21
2019-03-26T22:11:24.235Z,59.81
2019-03-26T22:13:56.627Z,59.66
2019-03-26T22:16:29.039Z,59.45
2019-03-26T22:19:02.606Z,59.75
2019-03-26T22:21:36.149Z,60.37
2019-03-26T22:24:08.591Z,60.22
2019-03-26T22:26:40.998Z,59.93
2019-03-26T22:29:13.418Z,59.40
2019-03-26T22:31:45.832Z,59.81
2019-03-26T22:34:18.212Z,61.00
2019-03-26T22:36:50.728Z,61.37
2019-03-26T22:39:23.111Z,61.09
2019-03-26T22:41:55.719Z,60.61
2019-03-26T22:44:31.701Z,60.29
2019-03-26T22:47:02.231Z,60.21
2019-03-26T22:49:34.611Z,60.01
2019-03-26T22:52:07.023Z,60.17
2019-03-26T22:54:39.421Z,62.27
2019-03-26T22:57:11.817Z,63.31
2019-03-26T22:59:44.229Z,64.19
2019-03-26T23:02:16.686Z,63.75
2019-03-26T23:04:49.088Z,63.84
2019-03-26T23:07:21.526Z,63.42
2019-03-26T23:09:53.980Z,63.22
2019-03-26T23:12:26.368Z,63.12
2019-03-26T23:14:58.760Z,62.76
2019-03-26T23:17:31.171Z,62.35
2019-03-26T23:20:03.544Z,62.27
2019-03-26T23:22:35.991Z,62.51
2019-03-26T23:25:08.416Z,62.87
2019-03-26T23:27:40.863Z,64.33
2019-03-26T23:30:13.625Z,65.02
2019-03-26T23:32:46.008Z,64.77
2019-03-26T23:35:18.477Z,64.96
2019-03-26T23:37:50.880Z,64.40
2019-03-26T23:40:23.284Z,64.29
2019-03-26T23:42:55.663Z,64.15
2019-03-26T23:45:28.033Z,63.63
2019-03-26T23:48:00.428Z,63.32
2019-03-26T23:50:32.817Z,63.15
2019-03-26T23:53:06.287Z,62.95
2019-03-26T23:55:38.645Z,63.09
2019-03-26T23:58:11.029Z,63.04
